No particular awareness of the weather is required.    There are no Weather-warnings


Meteo18 Weather Cam more information Meteo18 Weather Cam


Thunder radar more information blitzortung!


Rain radar more information rain snow radar


Visit our other weather sites:

Template documentation
and downloads

And another site



Weather Underground History page Text

Daily Summary for March 8, 2018 Units:  English    Metric   Both
« Previous Day
Next Day »
Daily Weekly Monthly Yearly Custom
  High: Low: Average:
Temperature: TemperatureC °F 1.7 °F 7.1 °F
Dew Point: DewpointC °F 0.8 °F 2.5 °F
Humidity: Humidity % 48 % 75 %
Wind Speed: WindSpeedKMH mph 0.0 mph 6.9 mph
Wind Gust: WindSpeedGustKMH mph - -
Wind:- - SW
Pressure: PressurehPa in 1004.6 in -
Precipitation: 0.0 in    
Historical Graphs
 
 
Tabular Data for March 8, 2018
Time Temperature Dew Point Pressure Wind Wind Speed Wind Gust Humidity Rainfall Rate (Hourly)
TemperatureC °F DewpointC °F PressurehPa in Calm     Humidity % HourlyPrecipMM in
00:01 4.0 °F 2.2 °F 1007.0 in SSE 4.7 mph 8.0 mph 88 % 0.0 in
00:07 3.8 °F 2.0 °F 1007.0 in South 4.7 mph 8.0 mph 88 % 0.0 in
00:13 3.7 °F 2.1 °F 1007.0 in SSW 3.2 mph 8.0 mph 89 % 0.0 in
00:19 3.6 °F 2.0 °F 1007.3 in SSW 4.7 mph 6.4 mph 89 % 0.0 in
00:25 3.6 °F 2.1 °F 1007.3 in SW 4.7 mph 8.0 mph 90 % 0.0 in
00:31 3.7 °F 2.2 °F 1007.3 in SW 7.9 mph 8.0 mph 90 % 0.0 in
00:37 3.6 °F 2.0 °F 1007.3 in SW 3.2 mph 6.4 mph 89 % 0.0 in
00:43 3.5 °F 2.2 °F 1007.3 in SW 3.2 mph 9.7 mph 91 % 0.0 in
00:49 3.7 °F 2.4 °F 1007.0 in SW 4.7 mph 9.7 mph 91 % 0.0 in
00:55 3.6 °F 2.1 °F 1007.3 in SSW 4.7 mph 6.4 mph 90 % 0.0 in
01:01 3.4 °F 2.1 °F 1007.3 in SW 3.2 mph 9.7 mph 91 % 0.0 in
01:07 3.3 °F 2.0 °F 1007.3 in SW 4.7 mph 6.4 mph 91 % 0.0 in
01:13 3.1 °F 1.8 °F 1007.3 in South 4.7 mph 4.8 mph 91 % 0.0 in
01:19 2.9 °F 1.7 °F 1007.3 in SSW 3.2 mph 6.4 mph 92 % 0.0 in
01:25 2.9 °F 1.7 °F 1007.3 in SW 4.7 mph 8.0 mph 92 % 0.0 in
01:31 2.8 °F 1.6 °F 1007.3 in South 1.4 mph 4.8 mph 92 % 0.0 in
01:37 2.8 °F 1.8 °F 1007.0 in SSW 1.4 mph 6.4 mph 93 % 0.0 in
01:43 2.7 °F 1.5 °F 1007.3 in Calm   3.2 mph 92 % 0.0 in
01:49 2.6 °F 1.6 °F 1007.0 in SE 1.4 mph 3.2 mph 93 % 0.0 in
01:55 2.4 °F 1.4 °F 1007.0 in Calm   1.6 mph 93 % 0.0 in
02:02 2.3 °F 1.3 °F 1007.0 in Calm   1.6 mph 93 % 0.0 in
02:08 2.2 °F 1.2 °F 1007.0 in Calm   1.6 mph 93 % 0.0 in
02:14 2.1 °F 1.1 °F 1007.0 in SSE 1.4 mph 1.6 mph 93 % 0.0 in
02:20 2.0 °F 1.1 °F 1007.0 in South 3.2 mph 4.8 mph 94 % 0.0 in
02:25 2.0 °F 1.1 °F 1006.7 in ESE 1.4 mph 1.6 mph 94 % 0.0 in
02:32 2.0 °F 1.1 °F 1006.7 in SSE 1.4 mph 3.2 mph 94 % 0.0 in
02:38 2.0 °F 1.1 °F 1006.7 in SSW 3.2 mph 6.4 mph 94 % 0.0 in
02:44 2.2 °F 1.5 °F 1006.3 in SSW 6.4 mph 8.0 mph 95 % 0.0 in
02:50 2.4 °F 1.7 °F 1006.3 in SW 4.7 mph 9.7 mph 95 % 0.0 in
02:56 2.8 °F 2.1 °F 1006.3 in SW 13.0 mph 13.0 mph 95 % 0.0 in
03:02 3.2 °F 2.3 °F 1006.3 in SW 4.7 mph 14.5 mph 94 % 0.0 in
03:08 3.4 °F 2.4 °F 1006.3 in SW 11.1 mph 14.5 mph 93 % 0.0 in
03:13 3.5 °F 2.3 °F 1006.3 in SW 9.7 mph 14.5 mph 92 % 0.0 in
03:19 3.4 °F 2.1 °F 1006.3 in SW 7.9 mph 11.3 mph 91 % 0.0 in
03:26 3.0 °F 1.7 °F 1006.3 in SSW 6.4 mph 8.0 mph 91 % 0.0 in
03:32 2.7 °F 1.5 °F 1006.3 in SSW 4.7 mph 8.0 mph 92 % 0.0 in
03:37 2.4 °F 1.2 °F 1006.3 in SW 6.4 mph 8.0 mph 92 % 0.0 in
03:44 2.6 °F 1.6 °F 1006.3 in SW 9.7 mph 9.7 mph 93 % 0.0 in
03:49 2.7 °F 1.7 °F 1006.3 in SW 9.7 mph 9.7 mph 93 % 0.0 in
03:56 2.7 °F 1.7 °F 1006.3 in SSW 6.4 mph 8.0 mph 93 % 0.0 in
04:02 2.7 °F 1.7 °F 1006.3 in SSW 7.9 mph 8.0 mph 93 % 0.0 in
04:08 2.6 °F 1.6 °F 1006.3 in SSW 6.4 mph 8.0 mph 93 % 0.0 in
04:14 2.7 °F 1.8 °F 1006.3 in SW 9.7 mph 11.3 mph 94 % 0.0 in
04:20 2.8 °F 1.8 °F 1006.3 in SSW 7.9 mph 11.3 mph 93 % 0.0 in
04:26 2.7 °F 1.7 °F 1006.3 in SSW 6.4 mph 9.7 mph 93 % 0.0 in
04:32 2.7 °F 1.7 °F 1006.3 in SW 6.4 mph 8.0 mph 93 % 0.0 in
04:38 2.7 °F 1.7 °F 1006.3 in SSW 6.4 mph 8.0 mph 93 % 0.0 in
04:44 2.8 °F 1.9 °F 1006.3 in SSW 6.4 mph 11.3 mph 94 % 0.0 in
04:50 2.8 °F 1.8 °F 1006.3 in SSW 4.7 mph 8.0 mph 93 % 0.0 in
04:56 2.7 °F 1.7 °F 1006.3 in SSW 7.9 mph 11.3 mph 93 % 0.0 in
05:02 2.7 °F 1.7 °F 1006.3 in SSW 7.9 mph 8.0 mph 93 % 0.0 in
05:08 2.7 °F 1.7 °F 1006.3 in SSW 4.7 mph 6.4 mph 93 % 0.0 in
05:14 2.7 °F 1.7 °F 1006.3 in SSW 4.7 mph 8.0 mph 93 % 0.0 in
05:20 2.6 °F 1.6 °F 1006.3 in SSW 6.4 mph 8.0 mph 93 % 0.0 in
05:26 2.4 °F 1.4 °F 1006.0 in SSW 4.7 mph 6.4 mph 93 % 0.0 in
05:32 2.3 °F 1.3 °F 1006.3 in SSW 3.2 mph 6.4 mph 93 % 0.0 in
05:38 2.2 °F 1.2 °F 1006.3 in SSW 6.4 mph 6.4 mph 93 % 0.0 in
05:44 2.2 °F 1.3 °F 1006.3 in SSW 4.7 mph 6.4 mph 94 % 0.0 in
05:50 2.3 °F 1.4 °F 1006.3 in SSW 6.4 mph 8.0 mph 94 % 0.0 in
05:56 2.2 °F 1.2 °F 1006.0 in SSW 3.2 mph 6.4 mph 93 % 0.0 in
06:02 2.1 °F 1.1 °F 1006.0 in SSW 1.4 mph 4.8 mph 93 % 0.0 in
06:08 2.0 °F 1.0 °F 1006.0 in SSW 1.4 mph 1.6 mph 93 % 0.0 in
06:14 1.9 °F 1.0 °F 1006.0 in Calm   3.2 mph 94 % 0.0 in
06:20 1.9 °F 1.0 °F 1006.3 in SSW 1.4 mph 1.6 mph 94 % 0.0 in
06:26 2.0 °F 1.1 °F 1006.3 in SSW 1.4 mph 3.2 mph 94 % 0.0 in
06:32 2.1 °F 1.4 °F 1006.3 in SSW 1.4 mph 3.2 mph 95 % 0.0 in
06:38 2.2 °F 1.5 °F 1006.3 in SSW 3.2 mph 3.2 mph 95 % 0.0 in
06:44 2.1 °F 1.2 °F 1006.3 in SW 3.2 mph 6.4 mph 94 % 0.0 in
06:50 2.1 °F 1.2 °F 1006.3 in SSW 4.7 mph 4.8 mph 94 % 0.0 in
06:56 1.9 °F 1.0 °F 1006.3 in SSW 1.4 mph 3.2 mph 94 % 0.0 in
07:02 1.8 °F 0.9 °F 1006.3 in Calm   1.6 mph 94 % 0.0 in
07:08 1.7 °F 0.8 °F 1006.3 in Calm     94 % 0.0 in
07:14 1.8 °F 0.9 °F 1006.3 in Calm   1.6 mph 94 % 0.0 in
07:20 1.9 °F 1.0 °F 1006.3 in Calm     94 % 0.0 in
07:26 1.9 °F 1.0 °F 1006.3 in Calm   1.6 mph 94 % 0.0 in
07:32 1.9 °F 1.0 °F 1006.3 in SSW 1.4 mph 4.8 mph 94 % 0.0 in
07:38 2.0 °F 1.1 °F 1006.3 in SSW 1.4 mph 3.2 mph 94 % 0.0 in
07:44 2.0 °F 1.0 °F 1006.3 in Calm   1.6 mph 93 % 0.0 in
07:50 2.3 °F 1.3 °F 1006.3 in Calm   1.6 mph 93 % 0.0 in
07:56 2.4 °F 1.2 °F 1006.3 in SSW 1.4 mph 1.6 mph 92 % 0.0 in
08:02 2.6 °F 1.4 °F 1006.3 in SSE 1.4 mph 1.6 mph 92 % 0.0 in
08:08 2.4 °F 1.1 °F 1006.3 in SSW 1.4 mph 3.2 mph 91 % 0.0 in
08:14 2.5 °F 1.3 °F 1006.3 in SSW 1.4 mph 3.2 mph 92 % 0.0 in
08:20 2.6 °F 1.4 °F 1006.3 in SSW 1.4 mph 3.2 mph 92 % 0.0 in
08:26 2.9 °F 1.7 °F 1006.3 in Calm   3.2 mph 92 % 0.0 in
08:32 3.2 °F 1.9 °F 1006.3 in SSW 6.4 mph 8.0 mph 91 % 0.0 in
08:38 3.4 °F 2.1 °F 1006.3 in SSE 4.7 mph 8.0 mph 91 % 0.0 in
08:44 3.8 °F 2.5 °F 1006.3 in South 1.4 mph 9.7 mph 91 % 0.0 in
08:50 4.0 °F 2.5 °F 1006.3 in SSW 7.9 mph 8.0 mph 90 % 0.0 in
08:56 4.1 °F 2.6 °F 1006.3 in South 4.7 mph 9.7 mph 90 % 0.0 in
09:02 4.1 °F 2.6 °F 1006.3 in South 1.4 mph 6.4 mph 90 % 0.0 in
09:08 4.3 °F 2.8 °F 1006.3 in South 1.4 mph 6.4 mph 90 % 0.0 in
09:14 4.4 °F 2.7 °F 1006.3 in SE 3.2 mph 4.8 mph 89 % 0.0 in
09:20 4.8 °F 3.1 °F 1006.3 in SSE 3.2 mph 8.0 mph 89 % 0.0 in
09:26 5.1 °F 3.1 °F 1006.3 in SSW 6.4 mph 11.3 mph 87 % 0.0 in
09:32 5.3 °F 3.3 °F 1006.3 in South 4.7 mph 11.3 mph 87 % 0.0 in
09:38 5.4 °F 3.2 °F 1006.3 in SSW 6.4 mph 11.3 mph 86 % 0.0 in
09:44 5.6 °F 3.3 °F 1006.3 in South 6.4 mph 11.3 mph 85 % 0.0 in
09:50 5.9 °F 3.6 °F 1006.3 in SSW 11.1 mph 12.9 mph 85 % 0.0 in
09:56 6.2 °F 3.5 °F 1006.3 in SSW 7.9 mph 12.9 mph 83 % 0.0 in
10:02 6.3 °F 3.6 °F 1006.3 in SSW 6.4 mph 12.9 mph 83 % 0.0 in
10:08 6.5 °F 3.6 °F 1006.3 in SW 11.1 mph 12.9 mph 82 % 0.0 in
10:14 6.7 °F 3.8 °F 1006.0 in SSW 9.7 mph 12.9 mph 82 % 0.0 in
10:20 7.1 °F 4.2 °F 1006.0 in SW 13.0 mph 13.0 mph 82 % 0.0 in
10:26 7.8 °F 4.2 °F 1006.0 in SSW 17.7 mph 17.7 mph 78 % 0.0 in
10:32 8.1 °F 4.1 °F 1006.0 in SW 20.9 mph 22.5 mph 76 % 0.0 in
10:38 8.2 °F 3.8 °F 1006.0 in SSW 16.3 mph 24.1 mph 74 % 0.0 in
10:44 8.3 °F 3.9 °F 1006.0 in SSW 17.7 mph 20.9 mph 74 % 0.0 in
10:51 8.4 °F 3.8 °F 1006.0 in SSW 20.9 mph 24.1 mph 73 % 0.0 in
10:57 8.6 °F 4.2 °F 1006.0 in SW 14.3 mph 17.7 mph 74 % 0.0 in
11:03 8.9 °F 4.3 °F 1006.0 in SSW 14.3 mph 20.9 mph 73 % 0.0 in
11:09 9.1 °F 3.9 °F 1006.0 in South 16.3 mph 22.5 mph 70 % 0.0 in
11:15 9.2 °F 4.0 °F 1006.0 in SSW 14.3 mph 22.5 mph 70 % 0.0 in
11:21 9.4 °F 4.2 °F 1005.6 in SW 17.7 mph 22.5 mph 70 % 0.0 in
11:27 9.6 °F 4.4 °F 1006.0 in SW 19.5 mph 20.9 mph 70 % 0.0 in
11:33 9.6 °F 4.4 °F 1005.6 in SW 17.7 mph 24.1 mph 70 % 0.0 in
11:39 10.0 °F 4.6 °F 1005.6 in WSW 11.1 mph 17.7 mph 69 % 0.0 in
11:45 10.3 °F 4.7 °F 1006.0 in SW 11.1 mph 17.7 mph 68 % 0.0 in
11:51 10.6 °F 4.7 °F 1005.6 in SW 22.7 mph 22.7 mph 67 % 0.0 in
11:57 10.7 °F 3.9 °F 1005.6 in SW 13.0 mph 30.6 mph 63 % 0.0 in
12:03 10.7 °F 3.7 °F 1005.6 in SW 13.0 mph 24.1 mph 62 % 0.0 in
12:09 10.9 °F 4.1 °F 1005.6 in SW 22.7 mph 24.1 mph 63 % 0.0 in
12:15 10.9 °F 4.4 °F 1005.6 in SSW 16.3 mph 25.7 mph 64 % 0.0 in
12:21 10.9 °F 4.4 °F 1005.6 in SW 17.7 mph 24.1 mph 64 % 0.0 in
12:27 11.1 °F 3.6 °F 1005.6 in SW 19.5 mph 24.1 mph 60 % 0.0 in
12:33 11.4 °F 4.1 °F 1005.6 in WSW 20.9 mph 20.9 mph 61 % 0.0 in
12:39 11.7 °F 4.0 °F 1005.6 in WSW 16.3 mph 27.4 mph 59 % 0.0 in
12:45 11.8 °F 5.2 °F 1005.6 in SW 13.0 mph 22.5 mph 64 % 0.0 in
12:51 11.8 °F 4.0 °F 1005.3 in SW 13.0 mph 19.3 mph 59 % 0.0 in
12:57 11.9 °F 3.6 °F 1005.3 in SW 9.7 mph 22.5 mph 57 % 0.0 in
13:03 12.2 °F 4.7 °F 1005.3 in SSW 16.3 mph 22.5 mph 60 % 0.0 in
13:09 12.4 °F 4.1 °F 1005.3 in SSW 9.7 mph 17.7 mph 57 % 0.0 in
13:15 12.4 °F 4.4 °F 1005.0 in West 3.2 mph 17.7 mph 58 % 0.0 in
13:21 12.4 °F 3.9 °F 1005.0 in SW 20.9 mph 20.9 mph 56 % 0.0 in
13:27 12.3 °F 3.5 °F 1005.0 in SW 11.1 mph 20.9 mph 55 % 0.0 in
13:33 12.3 °F 3.3 °F 1005.0 in West 6.4 mph 24.1 mph 54 % 0.0 in
13:39 12.2 °F 2.9 °F 1005.0 in WSW 16.3 mph 22.5 mph 53 % 0.0 in
13:45 12.4 °F 3.1 °F 1004.6 in WSW 17.7 mph 24.1 mph 53 % 0.0 in
13:51 12.6 °F 3.3 °F 1004.6 in West 17.7 mph 25.7 mph 53 % 0.0 in
13:57 12.7 °F 3.4 °F 1004.6 in WSW 19.5 mph 20.9 mph 53 % 0.0 in
14:03 12.8 °F 2.6 °F 1004.6 in SW 19.5 mph 35.4 mph 50 % 0.0 in
14:09 12.8 °F 4.2 °F 1004.6 in SW 17.7 mph 35.4 mph 56 % 0.0 in
14:15 12.9 °F 3.0 °F 1004.6 in WSW 27.4 mph 29.0 mph 51 % 0.0 in
14:21 12.9 °F 2.4 °F 1004.6 in SSW 22.7 mph 27.4 mph 49 % 0.0 in
14:27 12.9 °F 2.2 °F 1004.6 in SW 16.3 mph 37.0 mph 48 % 0.0 in
14:33 12.9 °F 2.7 °F 1004.6 in West 20.9 mph 33.8 mph 50 % 0.0 in
14:39 13.1 °F 2.9 °F 1004.6 in WSW 16.3 mph 25.7 mph 50 % 0.0 in
14:45 13.1 °F 2.3 °F 1004.6 in SW 17.7 mph 29.0 mph 48 % 0.0 in
14:51 13.1 °F 2.9 °F 1004.6 in West 11.1 mph 22.5 mph 50 % 0.0 in
14:57 13.2 °F 3.3 °F 1004.6 in SSW 13.0 mph 19.3 mph 51 % 0.0 in
15:03 13.2 °F 2.4 °F 1004.6 in WSW 19.5 mph 33.8 mph 48 % 0.0 in
15:09 13.2 °F 2.4 °F 1004.6 in SW 27.4 mph 30.6 mph 48 % 0.0 in
15:15 13.2 °F 2.7 °F 1004.6 in SW 24.1 mph 25.7 mph 49 % 0.0 in
15:21 13.1 °F 2.6 °F 1004.6 in SSW 19.5 mph 30.6 mph 49 % 0.0 in
15:27 13.2 °F 3.3 °F 1004.6 in West 6.4 mph 19.3 mph 51 % 0.0 in
15:33 13.3 °F 2.8 °F 1004.6 in SW 14.3 mph 25.7 mph 49 % 0.0 in
15:39 13.3 °F 2.8 °F 1004.6 in WSW 14.3 mph 27.4 mph 49 % 0.0 in
15:45 13.3 °F 2.5 °F 1004.6 in WSW 14.3 mph 25.7 mph 48 % 0.0 in
15:51 13.3 °F 2.8 °F 1004.6 in WSW 11.1 mph 20.9 mph 49 % 0.0 in
15:57 13.3 °F 2.5 °F 1004.6 in West 13.0 mph 24.1 mph 48 % 0.0 in
16:03 13.2 °F 2.4 °F 1004.6 in WSW 19.5 mph 24.1 mph 48 % 0.0 in
16:09 13.1 °F 2.3 °F 1004.6 in WSW 20.9 mph 24.1 mph 48 % 0.0 in
16:15 13.1 °F 2.9 °F 1004.6 in WSW 14.3 mph 19.3 mph 50 % 0.0 in
16:21 13.0 °F 2.8 °F 1004.6 in WSW 11.1 mph 17.7 mph 50 % 0.0 in
16:27 13.1 °F 2.9 °F 1004.6 in SW 11.1 mph 19.3 mph 50 % 0.0 in
16:33 13.1 °F 3.5 °F 1004.6 in West 6.4 mph 12.9 mph 52 % 0.0 in
16:39 13.1 °F 3.5 °F 1004.6 in West 6.4 mph 12.9 mph 52 % 0.0 in
16:45 13.1 °F 2.6 °F 1004.6 in WSW 11.1 mph 19.3 mph 49 % 0.0 in
16:51 13.1 °F 2.9 °F 1004.6 in SW 14.3 mph 14.5 mph 50 % 0.0 in
16:57 13.1 °F 2.9 °F 1004.6 in WSW 6.4 mph 17.7 mph 50 % 0.0 in
17:03 13.1 °F 2.9 °F 1004.6 in West 3.2 mph 14.5 mph 50 % 0.0 in
17:09 12.9 °F 3.0 °F 1004.6 in WSW 13.0 mph 14.5 mph 51 % 0.0 in
17:15 13.1 °F 2.9 °F 1004.6 in SW 19.5 mph 19.5 mph 50 % 0.0 in
17:21 13.3 °F 2.8 °F 1005.0 in West 11.1 mph 11.3 mph 49 % 0.0 in
17:27 13.4 °F 3.2 °F 1005.0 in SW 3.2 mph 12.9 mph 50 % 0.0 in
17:33 13.4 °F 2.9 °F 1005.0 in WSW 7.9 mph 14.5 mph 49 % 0.0 in
17:39 13.1 °F 2.9 °F 1005.0 in SW 6.4 mph 9.7 mph 50 % 0.0 in
17:45 12.9 °F 3.0 °F 1005.0 in WSW 3.2 mph 9.7 mph 51 % 0.0 in
17:51 12.8 °F 3.5 °F 1005.0 in WSW 1.4 mph 6.4 mph 53 % 0.0 in
17:57 12.7 °F 3.4 °F 1005.0 in WSW 11.1 mph 11.3 mph 53 % 0.0 in
18:03 12.9 °F 3.3 °F 1005.0 in WSW 4.7 mph 9.7 mph 52 % 0.0 in
18:09 13.0 °F 3.4 °F 1005.3 in SW 6.4 mph 9.7 mph 52 % 0.0 in
18:15 13.0 °F 3.1 °F 1005.3 in WSW 9.7 mph 12.9 mph 51 % 0.0 in
18:21 12.8 °F 3.2 °F 1005.3 in WSW 7.9 mph 12.9 mph 52 % 0.0 in
18:27 12.6 °F 3.3 °F 1005.3 in WSW 4.7 mph 11.3 mph 53 % 0.0 in
18:33 12.4 °F 3.1 °F 1005.3 in SW 13.0 mph 13.0 mph 53 % 0.0 in
18:39 12.3 °F 3.0 °F 1005.6 in SW 6.4 mph 9.7 mph 53 % 0.0 in
18:45 12.1 °F 3.1 °F 1005.6 in SW 4.7 mph 9.7 mph 54 % 0.0 in
18:51 11.9 °F 2.6 °F 1005.6 in WSW 6.4 mph 12.9 mph 53 % 0.0 in
18:57 11.9 °F 2.6 °F 1005.6 in WSW 7.9 mph 9.7 mph 53 % 0.0 in
19:03 11.7 °F 2.7 °F 1005.6 in WSW 3.2 mph 6.4 mph 54 % 0.0 in
19:09 11.5 °F 2.5 °F 1006.0 in West 4.7 mph 8.0 mph 54 % 0.0 in
19:15 11.2 °F 2.5 °F 1006.0 in WSW 6.4 mph 6.4 mph 55 % 0.0 in
19:21 11.1 °F 2.7 °F 1006.0 in WSW 6.4 mph 8.0 mph 56 % 0.0 in
19:27 11.0 °F 2.6 °F 1006.3 in West 4.7 mph 6.4 mph 56 % 0.0 in
19:33 10.8 °F 2.6 °F 1006.3 in SW 1.4 mph 4.8 mph 57 % 0.0 in
19:39 10.6 °F 2.7 °F 1006.3 in Calm   3.2 mph 58 % 0.0 in
19:45 10.3 °F 2.6 °F 1006.3 in Calm   1.6 mph 59 % 0.0 in
19:51 10.1 °F 2.7 °F 1006.3 in West 1.4 mph 1.6 mph 60 % 0.0 in
19:58 9.9 °F 2.5 °F 1006.3 in West 1.4 mph 1.6 mph 60 % 0.0 in
20:04 9.9 °F 2.7 °F 1006.3 in Calm   4.8 mph 61 % 0.0 in
20:10 9.3 °F 3.1 °F 1006.7 in SE 3.2 mph 3.2 mph 65 % 0.0 in
20:16 8.6 °F 3.0 °F 1006.7 in Calm   1.6 mph 68 % 0.0 in
20:22 8.2 °F 2.9 °F 1006.7 in Calm   1.6 mph 69 % 0.0 in
20:28 8.1 °F 3.0 °F 1006.7 in Calm     70 % 0.0 in
20:34 7.8 °F 2.7 °F 1006.7 in Calm     70 % 0.0 in
20:40 7.6 °F 2.9 °F 1006.7 in Calm     72 % 0.0 in
20:46 7.4 °F 2.9 °F 1007.0 in Calm     73 % 0.0 in
20:52 7.2 °F 2.7 °F 1007.0 in Calm     73 % 0.0 in
20:58 7.1 °F 2.8 °F 1007.0 in Calm     74 % 0.0 in
21:04 6.8 °F 2.7 °F 1007.0 in Calm     75 % 0.0 in
21:10 6.6 °F 2.7 °F 1007.0 in Calm   1.6 mph 76 % 0.0 in
21:16 6.3 °F 2.6 °F 1007.0 in Calm   1.6 mph 77 % 0.0 in
21:22 6.1 °F 2.6 °F 1007.3 in Calm     78 % 0.0 in
21:28 5.9 °F 2.5 °F 1007.3 in Calm     79 % 0.0 in
21:34 5.9 °F 2.5 °F 1007.3 in Calm     79 % 0.0 in
21:40 5.8 °F 2.6 °F 1007.3 in Calm     80 % 0.0 in
21:46 5.7 °F 2.7 °F 1007.3 in Calm     81 % 0.0 in
21:52 5.6 °F 2.6 °F 1007.3 in Calm     81 % 0.0 in
21:58 5.4 °F 2.4 °F 1007.3 in Calm     81 % 0.0 in
22:04 5.3 °F 2.5 °F 1007.3 in Calm     82 % 0.0 in
22:10 5.2 °F 2.4 °F 1007.3 in Calm   1.6 mph 82 % 0.0 in
22:16 5.2 °F 2.5 °F 1007.3 in Calm     83 % 0.0 in
22:22 5.3 °F 2.6 °F 1007.3 in Calm     83 % 0.0 in
22:28 5.4 °F 2.6 °F 1007.7 in Calm     82 % 0.0 in
22:34 5.7 °F 2.7 °F 1007.7 in Calm     81 % 0.0 in
22:40 5.9 °F 2.5 °F 1007.7 in Calm     79 % 0.0 in
22:46 6.1 °F 2.7 °F 1007.7 in Calm     79 % 0.0 in
22:52 6.3 °F 2.7 °F 1007.7 in Calm     78 % 0.0 in
22:58 6.3 °F 2.7 °F 1008.0 in NNE 1.4 mph 1.6 mph 78 % 0.0 in
23:04 6.2 °F 2.6 °F 1007.7 in Calm   1.6 mph 78 % 0.0 in
23:10 6.4 °F 2.8 °F 1008.0 in Calm     78 % 0.0 in
23:16 6.3 °F 2.7 °F 1008.0 in Calm     78 % 0.0 in
23:22 6.5 °F 2.8 °F 1008.0 in Calm   1.6 mph 77 % 0.0 in
23:28 6.6 °F 2.7 °F 1008.0 in Calm     76 % 0.0 in
23:34 6.6 °F 2.7 °F 1008.0 in Calm     76 % 0.0 in
23:40 6.4 °F 2.7 °F 1008.0 in Calm     77 % 0.0 in
23:46 6.3 °F 2.7 °F 1008.0 in Calm     78 % 0.0 in
23:52 6.2 °F 2.8 °F 1008.0 in Calm     79 % 0.0 in
23:59 6.1 °F 2.7 °F 1008.0 in Calm     79 % 0.0 in
Meteo18
Compliments of Weather Underground - 4 mb

Script developed by  Jim McMurry - jmcmurry@mwt.net Adapted for the template by  Wim van der Kuil - Leuven-Template.eu

You find our weather info also at:

European Weather Network

Weather Underground

Equipment we use:

Weather-station
Davis Vue

Weather-program
Meteobridge

Weather-server
Raspberry PI 2 B+

Provider
1 and 1

Davis Vue

Meteobridge

Raspberry PI 2 B+

1 and 1